Observations for Trim Market St
| Time | AQI | Temp °C | Hum % | Pres Pa | CO μg/m³ | H₂S μg/m³ | NO μg/m³ | NO₂ μg/m³ | O₃ μg/m³ | SO₂ μg/m³ | PM1 μg/m³ | PM2.5 μg/m³ | PM10 μg/m³ |
|---|---|---|---|---|---|---|---|---|---|---|---|---|---|
| Sunday 16 August 2026 | |||||||||||||
| 16:39 | 2 | 21.6 | 61 | 57,437 | 0 | 0 | 1.17 | 10.99 | 62.81 | 0 | 0 | 2.47 | 3.46 |
| 16:38 | 2 | 21.6 | 61 | 57,446 | 0.01 | 0 | 1.17 | 10.7 | 63.15 | 0 | 0 | 1.97 | 2.78 |
| 16:37 | 2 | 21.6 | 61 | 57,454 | 0.01 | 0 | 1.18 | 11.59 | 58.85 | 0 | 1.43 | 2.47 | 3.45 |
| 16:35 | 2 | 21.7 | 61 | 57,481 | 0.08 | 0 | 1.22 | 10.27 | 55.12 | 0 | 0.71 | 2.47 | 3.45 |
| 16:34 | 2 | 21.7 | 61 | 57,495 | 0 | 0 | 1.25 | 9.78 | 59.92 | 0 | 1.43 | 2.97 | 4.13 |
| 16:33 | 2 | 21.7 | 61 | 57,502 | 0 | 0 | 1.35 | 9.17 | 58.65 | 0 | 0.71 | 1.98 | 2.77 |
| 16:31 | 2 | 21.8 | 61 | 57,518 | 0 | 0 | 1.98 | 7.83 | 57.8 | 0 | 0 | 2.98 | 4.81 |
| 16:30 | 2 | 21.8 | 61 | 57,524 | 0 | 0 | 1.52 | 8.19 | 58.02 | 0 | 0 | 1.98 | 3.45 |
| 16:29 | 2 | 21.8 | 61 | 57,524 | 0 | 0 | 1.3 | 9.27 | 59.18 | 0 | 1.43 | 2.48 | 3.45 |
| 16:28 | 2 | 21.8 | 61 | 57,531 | 0 | 0 | 1.2 | 9.51 | 60.28 | 0 | 0.71 | 2.48 | 3.45 |
| 16:26 | 2 | 21.9 | 61 | 57,540 | 0 | 0 | 1.16 | 10.09 | 57.15 | 0 | 0 | 2.49 | 4.12 |
| 16:25 | 2 | 21.9 | 61 | 57,547 | 0 | 0 | 1.16 | 9.61 | 59.04 | 0 | 0.71 | 2.49 | 3.44 |
| 16:24 | 2 | 21.9 | 61 | 57,551 | 0 | 0 | 1.2 | 9.49 | 55.16 | 0 | 0 | 1.98 | 2.77 |
| 16:23 | 2 | 22 | 61 | 57,546 | 0 | 0 | 1.14 | 9.59 | 58.68 | 0 | 0.71 | 2.48 | 3.45 |
| 16:21 | 2 | 21.9 | 61 | 57,531 | 0.11 | 0 | 1.25 | 9 | 54.5 | 0 | 0 | 1.98 | 4.13 |
| 16:20 | 2 | 21.9 | 61 | 57,520 | 0.23 | 0 | 1.16 | 9.25 | 56.33 | 0 | 0.71 | 2.47 | 3.45 |
| 16:19 | 2 | 21.9 | 61 | 57,508 | 0.12 | 0 | 1.14 | 8.64 | 54.16 | 0 | 0 | 1.47 | 2.78 |
| 16:18 | 2 | 21.9 | 61 | 57,494 | 0.29 | 0 | 1.15 | 9.82 | 56.02 | 0 | 0.71 | 2.46 | 4.14 |
| 16:17 | 2 | 21.9 | 62 | 57,476 | 0.17 | 0 | 1.14 | 10.86 | 50.8 | 0 | 0.71 | 1.96 | 2.79 |
| 16:15 | 2 | 21.9 | 62 | 57,471 | 0.14 | 0 | 1.14 | 8.87 | 52.16 | 0 | 1.43 | 3.45 | 5.5 |